sensor_id;sensor_type;location;lat;lon;timestamp;pressure;altitude;pressure_sealevel;temperature;humidity
43153;BME280;28756;49.064;9.290;2023-04-22T00:02:07;98485.13;;;9.25;100.00
43153;BME280;28756;49.064;9.290;2023-04-22T00:04:33;98484.28;;;9.25;100.00
43153;BME280;28756;49.064;9.290;2023-04-22T00:06:59;98485.03;;;9.27;100.00
43153;BME280;28756;49.064;9.290;2023-04-22T00:09:28;98483.38;;;9.26;100.00
43153;BME280;28756;49.064;9.290;2023-04-22T00:11:54;98481.78;;;9.23;100.00
43153;BME280;28756;49.064;9.290;2023-04-22T00:14:20;98487.97;;;9.21;100.00
43153;BME280;28756;49.064;9.290;2023-04-22T00:16:46;98485.47;;;9.19;100.00
43153;BME280;28756;49.064;9.290;2023-04-22T00:19:12;98483.06;;;9.16;100.00
43153;BME280;28756;49.064;9.290;2023-04-22T00:21:37;98484.94;;;9.14;100.00
43153;BME280;28756;49.064;9.290;2023-04-22T00:24:03;98483.34;;;9.11;100.00
43153;BME280;28756;49.064;9.290;2023-04-22T00:26:29;98485.25;;;9.08;100.00
43153;BME280;28756;49.064;9.290;2023-04-22T00:28:56;98481.09;;;9.05;100.00
43153;BME280;28756;49.064;9.290;2023-04-22T00:31:21;98480.53;;;9.00;100.00
43153;BME280;28756;49.064;9.290;2023-04-22T00:33:47;98479.78;;;8.98;100.00
43153;BME280;28756;49.064;9.290;2023-04-22T00:36:13;98479.59;;;9.01;100.00
43153;BME280;28756;49.064;9.290;2023-04-22T00:38:39;98486.53;;;9.00;100.00
43153;BME280;28756;49.064;9.290;2023-04-22T00:41:06;98481.44;;;8.99;100.00
43153;BME280;28756;49.064;9.290;2023-04-22T00:43:32;98486.53;;;9.00;100.00
43153;BME280;28756;49.064;9.290;2023-04-22T00:45:58;98482.38;;;8.98;100.00
43153;BME280;28756;49.064;9.290;2023-04-22T00:48:24;98476.25;;;8.99;100.00
43153;BME280;28756;49.064;9.290;2023-04-22T00:50:50;98480.63;;;8.98;100.00
43153;BME280;28756;49.064;9.290;2023-04-22T00:53:16;98480.53;;;9.00;100.00
43153;BME280;28756;49.064;9.290;2023-04-22T00:55:42;98478.84;;;8.99;100.00
43153;BME280;28756;49.064;9.290;2023-04-22T00:58:09;98482.31;;;8.99;100.00
43153;BME280;28756;49.064;9.290;2023-04-22T01:00:35;98477.19;;;8.98;100.00
43153;BME280;28756;49.064;9.290;2023-04-22T01:03:01;98477.19;;;8.98;100.00
43153;BME280;28756;49.064;9.290;2023-04-22T01:05:30;98474.84;;;8.93;100.00
43153;BME280;28756;49.064;9.290;2023-04-22T01:07:56;98480.94;;;8.92;100.00
43153;BME280;28756;49.064;9.290;2023-04-22T01:10:23;98475.03;;;8.90;100.00
43153;BME280;28756;49.064;9.290;2023-04-22T01:12:48;98474.44;;;8.85;100.00
43153;BME280;28756;49.064;9.290;2023-04-22T01:15:14;98461.84;;;8.79;100.00
43153;BME280;28756;49.064;9.290;2023-04-22T01:17:40;98467.03;;;8.79;100.00
43153;BME280;28756;49.064;9.290;2023-04-22T01:20:06;98476.47;;;8.80;100.00
43153;BME280;28756;49.064;9.290;2023-04-22T01:22:40;98470.75;;;8.75;100.00
43153;BME280;28756;49.064;9.290;2023-04-22T01:25:08;98474.16;;;8.75;100.00
43153;BME280;28756;49.064;9.290;2023-04-22T01:27:37;98475.06;;;8.74;100.00
43153;BME280;28756;49.064;9.290;2023-04-22T01:30:05;98476.00;;;8.73;100.00
43153;BME280;28756;49.064;9.290;2023-04-22T01:32:32;98471.72;;;8.72;100.00
43153;BME280;28756;49.064;9.290;2023-04-22T01:34:58;98475.31;;;8.69;100.00
43153;BME280;28756;49.064;9.290;2023-04-22T01:37:24;98473.00;;;8.65;100.00
43153;BME280;28756;49.064;9.290;2023-04-22T01:39:49;98471.34;;;8.64;100.00
43153;BME280;28756;49.064;9.290;2023-04-22T01:42:16;98468.16;;;8.59;100.00
43153;BME280;28756;49.064;9.290;2023-04-22T01:44:42;98468.25;;;8.57;100.00
43153;BME280;28756;49.064;9.290;2023-04-22T01:47:07;98470.84;;;8.57;100.00
43153;BME280;28756;49.064;9.290;2023-04-22T01:49:33;98470.84;;;8.57;100.00
43153;BME280;28756;49.064;9.290;2023-04-22T01:51:59;98470.94;;;8.56;100.00
43153;BME280;28756;49.064;9.290;2023-04-22T01:54:25;98475.28;;;8.55;100.00
43153;BME280;28756;49.064;9.290;2023-04-22T01:56:53;98467.59;;;8.53;100.00
43153;BME280;28756;49.064;9.290;2023-04-22T01:59:20;98483.97;;;8.54;100.00
43153;BME280;28756;49.064;9.290;2023-04-22T02:01:46;98477.97;;;8.53;100.00
43153;BME280;28756;49.064;9.290;2023-04-22T02:04:12;98472.94;;;8.50;100.00
43153;BME280;28756;49.064;9.290;2023-04-22T02:06:38;98474.78;;;8.48;100.00
43153;BME280;28756;49.064;9.290;2023-04-22T02:09:04;98474.78;;;8.48;100.00
43153;BME280;28756;49.064;9.290;2023-04-22T02:11:30;98480.03;;;8.47;100.00
43153;BME280;28756;49.064;9.290;2023-04-22T02:13:56;98491.28;;;8.46;100.00
43153;BME280;28756;49.064;9.290;2023-04-22T02:16:22;98485.38;;;8.44;100.00
43153;BME280;28756;49.064;9.290;2023-04-22T02:18:47;98492.41;;;8.42;100.00
43153;BME280;28756;49.064;9.290;2023-04-22T02:21:14;98491.84;;;8.36;100.00
43153;BME280;28756;49.064;9.290;2023-04-22T02:23:40;98495.34;;;8.35;100.00
43153;BME280;28756;49.064;9.290;2023-04-22T02:26:06;98497.16;;;8.33;100.00
43153;BME280;28756;49.064;9.290;2023-04-22T02:28:32;98498.25;;;8.29;100.00
43153;BME280;28756;49.064;9.290;2023-04-22T02:30:59;98505.28;;;8.27;100.00
43153;BME280;28756;49.064;9.290;2023-04-22T02:33:25;98500.16;;;8.26;100.00
43153;BME280;28756;49.064;9.290;2023-04-22T02:35:51;98494.97;;;8.26;100.00
43153;BME280;28756;49.064;9.290;2023-04-22T02:38:17;98498.56;;;8.23;100.00
43153;BME280;28756;49.064;9.290;2023-04-22T02:40:43;98503.00;;;8.21;100.00
43153;BME280;28756;49.064;9.290;2023-04-22T02:43:08;98510.09;;;8.17;100.00
43153;BME280;28756;49.064;9.290;2023-04-22T02:45:34;98514.47;;;8.17;100.00
43153;BME280;28756;49.064;9.290;2023-04-22T02:48:00;98511.88;;;8.17;100.00
43153;BME280;28756;49.064;9.290;2023-04-22T02:50:26;98514.63;;;8.14;100.00
43153;BME280;28756;49.064;9.290;2023-04-22T02:52:52;98521.56;;;8.13;100.00
43153;BME280;28756;49.064;9.290;2023-04-22T02:55:17;98512.13;;;8.12;100.00
43153;BME280;28756;49.064;9.290;2023-04-22T02:57:43;98511.28;;;8.12;100.00
43153;BME280;28756;49.064;9.290;2023-04-22T03:00:09;98511.53;;;8.07;100.00
43153;BME280;28756;49.064;9.290;2023-04-22T03:02:35;98513.38;;;8.05;100.00
43153;BME280;28756;49.064;9.290;2023-04-22T03:05:01;98511.78;;;8.02;100.00
43153;BME280;28756;49.064;9.290;2023-04-22T03:07:27;98499.91;;;7.98;100.00
43153;BME280;28756;49.064;9.290;2023-04-22T03:09:53;98504.25;;;7.98;100.00
43153;BME280;28756;49.064;9.290;2023-04-22T03:12:20;98500.13;;;7.94;100.00
43153;BME280;28756;49.064;9.290;2023-04-22T03:14:46;98501.91;;;7.93;100.00
43153;BME280;28756;49.064;9.290;2023-04-22T03:17:12;98507.22;;;7.90;100.00
43153;BME280;28756;49.064;9.290;2023-04-22T03:19:38;98506.56;;;7.86;100.00
43153;BME280;28756;49.064;9.290;2023-04-22T03:22:04;98510.16;;;7.84;100.00
43153;BME280;28756;49.064;9.290;2023-04-22T03:24:29;98499.97;;;7.81;100.00
43153;BME280;28756;49.064;9.290;2023-04-22T03:26:55;98510.38;;;7.79;100.00
43153;BME280;28756;49.064;9.290;2023-04-22T03:29:21;98510.56;;;7.76;100.00
43153;BME280;28756;49.064;9.290;2023-04-22T03:31:47;98503.28;;;7.67;100.00
43153;BME280;28756;49.064;9.290;2023-04-22T03:34:12;98507.53;;;7.68;100.00
43153;BME280;28756;49.064;9.290;2023-04-22T03:36:38;98516.31;;;7.65;100.00
43153;BME280;28756;49.064;9.290;2023-04-22T03:39:04;98509.44;;;7.64;100.00
43153;BME280;28756;49.064;9.290;2023-04-22T03:41:30;98512.94;;;7.63;100.00
43153;BME280;28756;49.064;9.290;2023-04-22T03:43:55;98512.28;;;7.59;100.00
43153;BME280;28756;49.064;9.290;2023-04-22T03:46:21;98511.50;;;7.57;100.00
43153;BME280;28756;49.064;9.290;2023-04-22T03:48:47;98507.25;;;7.56;100.00
43153;BME280;28756;49.064;9.290;2023-04-22T03:51:12;98513.34;;;7.55;100.00
43153;BME280;28756;49.064;9.290;2023-04-22T03:53:38;98515.19;;;7.53;100.00
43153;BME280;28756;49.064;9.290;2023-04-22T03:56:04;98510.97;;;7.51;100.00
43153;BME280;28756;49.064;9.290;2023-04-22T03:58:30;98511.97;;;7.48;100.00
43153;BME280;28756;49.064;9.290;2023-04-22T04:00:56;98501.72;;;7.47;100.00
43153;BME280;28756;49.064;9.290;2023-04-22T04:03:21;98508.72;;;7.45;100.00
43153;BME280;28756;49.064;9.290;2023-04-22T04:05:47;98500.94;;;7.45;100.00
43153;BME280;28756;49.064;9.290;2023-04-22T04:08:16;98506.22;;;7.43;100.00
43153;BME280;28756;49.064;9.290;2023-04-22T04:10:42;98503.78;;;7.40;100.00
43153;BME280;28756;49.064;9.290;2023-04-22T04:13:07;98497.78;;;7.39;100.00
43153;BME280;28756;49.064;9.290;2023-04-22T04:15:33;98502.28;;;7.36;100.00
43153;BME280;28756;49.064;9.290;2023-04-22T04:18:01;98506.69;;;7.34;100.00
43153;BME280;28756;49.064;9.290;2023-04-22T04:20:28;98507.66;;;7.31;100.00
43153;BME280;28756;49.064;9.290;2023-04-22T04:22:54;98511.03;;;7.16;100.00
43153;BME280;28756;49.064;9.290;2023-04-22T04:25:24;98500.91;;;7.11;100.00
43153;BME280;28756;49.064;9.290;2023-04-22T04:27:49;98504.31;;;7.11;100.00
43153;BME280;28756;49.064;9.290;2023-04-22T04:30:16;98491.47;;;7.10;100.00
43153;BME280;28756;49.064;9.290;2023-04-22T04:32:42;98503.56;;;7.09;100.00
43153;BME280;28756;49.064;9.290;2023-04-22T04:35:10;98495.06;;;7.07;100.00
43153;BME280;28756;49.064;9.290;2023-04-22T04:37:41;98484.84;;;7.04;100.00
43153;BME280;28756;49.064;9.290;2023-04-22T04:40:07;98489.44;;;6.99;100.00
43153;BME280;28756;49.064;9.290;2023-04-22T04:42:34;98485.06;;;7.00;100.00
43153;BME280;28756;49.064;9.290;2023-04-22T04:45:00;98491.09;;;7.00;100.00
43153;BME280;28756;49.064;9.290;2023-04-22T04:47:26;98498.09;;;6.98;100.00
43153;BME280;28756;49.064;9.290;2023-04-22T04:49:52;98494.50;;;7.01;100.00
43153;BME280;28756;49.064;9.290;2023-04-22T04:52:18;98499.63;;;7.02;100.00
43153;BME280;28756;49.064;9.290;2023-04-22T04:54:44;98499.53;;;7.04;100.00
43153;BME280;28756;49.064;9.290;2023-04-22T04:57:10;98492.56;;;7.06;100.00
43153;BME280;28756;49.064;9.290;2023-04-22T04:59:36;98499.31;;;7.08;100.00
43153;BME280;28756;49.064;9.290;2023-04-22T05:02:01;98504.50;;;7.08;100.00
43153;BME280;28756;49.064;9.290;2023-04-22T05:04:27;98498.25;;;7.13;100.00
43153;BME280;28756;49.064;9.290;2023-04-22T05:06:53;98504.31;;;7.11;100.00
43153;BME280;28756;49.064;9.290;2023-04-22T05:09:19;98498.19;;;7.14;100.00
43153;BME280;28756;49.064;9.290;2023-04-22T05:11:45;98501.50;;;7.16;100.00
43153;BME280;28756;49.064;9.290;2023-04-22T05:14:10;98491.94;;;7.18;100.00
43153;BME280;28756;49.064;9.290;2023-04-22T05:16:36;98502.13;;;7.21;100.00
43153;BME280;28756;49.064;9.290;2023-04-22T05:19:02;98511.47;;;7.24;100.00
43153;BME280;28756;49.064;9.290;2023-04-22T05:21:27;98502.81;;;7.25;100.00
43153;BME280;28756;49.064;9.290;2023-04-22T05:23:53;98499.38;;;7.24;100.00
43153;BME280;28756;49.064;9.290;2023-04-22T05:26:19;98507.00;;;7.27;100.00
43153;BME280;28756;49.064;9.290;2023-04-22T05:28:45;98509.41;;;7.31;100.00
43153;BME280;28756;49.064;9.290;2023-04-22T05:31:10;98502.31;;;7.34;100.00
43153;BME280;28756;49.064;9.290;2023-04-22T05:33:36;98495.34;;;7.36;100.00
43153;BME280;28756;49.064;9.290;2023-04-22T05:36:02;98495.28;;;7.38;100.00
43153;BME280;28756;49.064;9.290;2023-04-22T05:38:28;98494.28;;;7.40;100.00
43153;BME280;28756;49.064;9.290;2023-04-22T05:40:54;98500.94;;;7.45;100.00
43153;BME280;28756;49.064;9.290;2023-04-22T05:43:20;98500.56;;;7.52;100.00
43153;BME280;28756;49.064;9.290;2023-04-22T05:45:45;98495.16;;;7.57;100.00
43153;BME280;28756;49.064;9.290;2023-04-22T05:48:12;98492.81;;;7.52;100.00
43153;BME280;28756;49.064;9.290;2023-04-22T05:50:37;98489.03;;;7.58;100.00
43153;BME280;28756;49.064;9.290;2023-04-22T05:53:03;98491.09;;;7.69;100.00
43153;BME280;28756;49.064;9.290;2023-04-22T05:55:29;98494.53;;;7.85;100.00
43153;BME280;28756;49.064;9.290;2023-04-22T05:57:55;98496.25;;;8.02;100.00
43153;BME280;28756;49.064;9.290;2023-04-22T06:00:21;98490.06;;;8.21;100.00
43153;BME280;28756;49.064;9.290;2023-04-22T06:02:46;98497.59;;;8.42;100.00
43153;BME280;28756;49.064;9.290;2023-04-22T06:05:12;98490.81;;;8.55;100.00
43153;BME280;28756;49.064;9.290;2023-04-22T06:07:39;98496.81;;;8.72;100.00
43153;BME280;28756;49.064;9.290;2023-04-22T06:10:05;98488.53;;;8.81;100.00
43153;BME280;28756;49.064;9.290;2023-04-22T06:12:32;98493.53;;;8.84;100.00
43153;BME280;28756;49.064;9.290;2023-04-22T06:14:59;98484.16;;;8.81;100.00
43153;BME280;28756;49.064;9.290;2023-04-22T06:17:25;98487.00;;;8.93;100.00
43153;BME280;28756;49.064;9.290;2023-04-22T06:19:50;98492.19;;;9.38;100.00
43153;BME280;28756;49.064;9.290;2023-04-22T06:22:16;98482.09;;;9.62;100.00
43153;BME280;28756;49.064;9.290;2023-04-22T06:24:42;98473.28;;;9.79;100.00
43153;BME280;28756;49.064;9.290;2023-04-22T06:27:08;98464.47;;;9.96;100.00
43153;BME280;28756;49.064;9.290;2023-04-22T06:29:34;98448.59;;;10.01;100.00
43153;BME280;28756;49.064;9.290;2023-04-22T06:31:59;98451.94;;;10.45;100.00
43153;BME280;28756;49.064;9.290;2023-04-22T06:34:25;98444.16;;;11.11;100.00
43153;BME280;28756;49.064;9.290;2023-04-22T06:36:51;98428.44;;;11.51;100.00
43153;BME280;28756;49.064;9.290;2023-04-22T06:39:18;98439.88;;;11.74;100.00
43153;BME280;28756;49.064;9.290;2023-04-22T06:41:44;98440.19;;;12.20;100.00
43153;BME280;28756;49.064;9.290;2023-04-22T06:44:09;98438.75;;;12.40;100.00
43153;BME280;28756;49.064;9.290;2023-04-22T06:46:35;98437.66;;;12.55;100.00
43153;BME280;28756;49.064;9.290;2023-04-22T06:49:02;98435.59;;;12.83;100.00
43153;BME280;28756;49.064;9.290;2023-04-22T06:51:28;98429.94;;;13.01;100.00
43153;BME280;28756;49.064;9.290;2023-04-22T06:53:54;98432.44;;;13.02;100.00
43153;BME280;28756;49.064;9.290;2023-04-22T06:56:20;98435.13;;;12.78;100.00
43153;BME280;28756;49.064;9.290;2023-04-22T06:58:46;98438.81;;;12.87;100.00
43153;BME280;28756;49.064;9.290;2023-04-22T07:01:11;98432.81;;;13.09;100.00
43153;BME280;28756;49.064;9.290;2023-04-22T07:03:37;98426.09;;;13.29;100.00
43153;BME280;28756;49.064;9.290;2023-04-22T07:06:03;98427.78;;;13.53;100.00
43153;BME280;28756;49.064;9.290;2023-04-22T07:08:29;98426.38;;;13.71;100.00
43153;BME280;28756;49.064;9.290;2023-04-22T07:10:55;98413.06;;;13.74;100.00
43153;BME280;28756;49.064;9.290;2023-04-22T07:13:22;98416.16;;;13.80;100.00
43153;BME280;28756;49.064;9.290;2023-04-22T07:15:48;98422.91;;;13.71;100.00
43153;BME280;28756;49.064;9.290;2023-04-22T07:18:13;98414.75;;;13.64;100.00
43153;BME280;28756;49.064;9.290;2023-04-22T07:20:39;98415.78;;;13.84;100.00
43153;BME280;28756;49.064;9.290;2023-04-22T07:23:05;98417.94;;;13.56;100.00
43153;BME280;28756;49.064;9.290;2023-04-22T07:25:31;98406.63;;;13.90;100.00
43153;BME280;28756;49.064;9.290;2023-04-22T07:27:56;98395.50;;;14.20;100.00
43153;BME280;28756;49.064;9.290;2023-04-22T07:30:22;98397.72;;;14.58;100.00
43153;BME280;28756;49.064;9.290;2023-04-22T07:32:48;98397.28;;;15.37;100.00
43153;BME280;28756;49.064;9.290;2023-04-22T07:35:14;98383.47;;;16.36;100.00
43153;BME280;28756;49.064;9.290;2023-04-22T07:37:39;98383.06;;;16.41;100.00
43153;BME280;28756;49.064;9.290;2023-04-22T07:40:06;98380.81;;;17.61;100.00
43153;BME280;28756;49.064;9.290;2023-04-22T07:42:37;98379.66;;;17.45;100.00
43153;BME280;28756;49.064;9.290;2023-04-22T07:45:04;98369.97;;;17.74;100.00
43153;BME280;28756;49.064;9.290;2023-04-22T07:47:30;98376.59;;;17.50;100.00
43153;BME280;28756;49.064;9.290;2023-04-22T07:49:56;98370.47;;;17.59;100.00
43153;BME280;28756;49.064;9.290;2023-04-22T07:52:22;98376.47;;;17.51;97.35
43153;BME280;28756;49.064;9.290;2023-04-22T07:54:48;98373.88;;;17.04;100.00
43153;BME280;28756;49.064;9.290;2023-04-22T07:57:14;98370.56;;;17.40;100.00
43153;BME280;28756;49.064;9.290;2023-04-22T07:59:40;98373.38;;;17.28;100.00
43153;BME280;28756;49.064;9.290;2023-04-22T08:02:05;98371.78;;;17.08;100.00
43153;BME280;28756;49.064;9.290;2023-04-22T08:04:31;98372.22;;;17.68;100.00
43153;BME280;28756;49.064;9.290;2023-04-22T08:06:57;98364.03;;;17.99;100.00
43153;BME280;28756;49.064;9.290;2023-04-22T08:09:23;98367.03;;;18.05;89.83
43153;BME280;28756;49.064;9.290;2023-04-22T08:11:49;98365.69;;;18.01;100.00
43153;BME280;28756;49.064;9.290;2023-04-22T08:14:14;98380.00;;;17.60;98.44
43153;BME280;28756;49.064;9.290;2023-04-22T08:16:41;98381.75;;;17.42;100.00
43153;BME280;28756;49.064;9.290;2023-04-22T08:19:07;98382.16;;;17.09;100.00
43153;BME280;28756;49.064;9.290;2023-04-22T08:21:32;98384.28;;;17.33;100.00
43153;BME280;28756;49.064;9.290;2023-04-22T08:23:58;98386.63;;;17.36;92.48
43153;BME280;28756;49.064;9.290;2023-04-22T08:26:24;98384.84;;;17.27;100.00
43153;BME280;28756;49.064;9.290;2023-04-22T08:28:50;98394.16;;;17.12;100.00
43153;BME280;28756;49.064;9.290;2023-04-22T08:31:16;98381.94;;;17.30;100.00
43153;BME280;28756;49.064;9.290;2023-04-22T08:33:42;98386.13;;;17.13;100.00
43153;BME280;28756;49.064;9.290;2023-04-22T08:36:08;98389.44;;;17.15;100.00
43153;BME280;28756;49.064;9.290;2023-04-22T08:38:36;98394.06;;;16.84;100.00
43153;BME280;28756;49.064;9.290;2023-04-22T08:41:04;98393.34;;;16.92;100.00
43153;BME280;28756;49.064;9.290;2023-04-22T08:43:31;98395.97;;;16.92;100.00
43153;BME280;28756;49.064;9.290;2023-04-22T08:45:57;98398.19;;;17.06;100.00
43153;BME280;28756;49.064;9.290;2023-04-22T08:48:25;98391.06;;;17.36;100.00
43153;BME280;28756;49.064;9.290;2023-04-22T08:50:51;98386.53;;;17.84;100.00
43153;BME280;28756;49.064;9.290;2023-04-22T08:53:19;98390.19;;;18.01;100.00
43153;BME280;28756;49.064;9.290;2023-04-22T08:55:45;98393.25;;;17.68;100.00
43153;BME280;28756;49.064;9.290;2023-04-22T08:58:13;98390.13;;;17.83;100.00
43153;BME280;28756;49.064;9.290;2023-04-22T09:00:42;98387.88;;;17.98;100.00
43153;BME280;28756;49.064;9.290;2023-04-22T09:03:09;98381.06;;;18.68;96.34
43153;BME280;28756;49.064;9.290;2023-04-22T09:05:39;98371.28;;;19.65;87.97
43153;BME280;28756;49.064;9.290;2023-04-22T09:08:05;98372.81;;;20.44;86.65
43153;BME280;28756;49.064;9.290;2023-04-22T09:10:34;98367.34;;;21.03;78.11
43153;BME280;28756;49.064;9.290;2023-04-22T09:13:03;98364.94;;;21.33;65.82
43153;BME280;28756;49.064;9.290;2023-04-22T09:15:30;98364.22;;;20.58;69.53
43153;BME280;28756;49.064;9.290;2023-04-22T09:17:56;98360.56;;;20.34;68.43
43153;BME280;28756;49.064;9.290;2023-04-22T09:20:28;98359.25;;;20.47;75.87
43153;BME280;28756;49.064;9.290;2023-04-22T09:22:56;98360.72;;;20.99;77.07
43153;BME280;28756;49.064;9.290;2023-04-22T09:25:25;98357.78;;;20.77;68.05
43153;BME280;28756;49.064;9.290;2023-04-22T09:27:57;98364.88;;;20.35;72.95
43153;BME280;28756;49.064;9.290;2023-04-22T09:30:25;98368.84;;;20.81;70.41
43153;BME280;28756;49.064;9.290;2023-04-22T09:32:57;98373.13;;;21.46;58.34
43153;BME280;28756;49.064;9.290;2023-04-22T09:35:38;98359.97;;;21.30;54.56
43153;BME280;28756;49.064;9.290;2023-04-22T09:38:07;98359.72;;;21.48;69.17
43153;BME280;28756;49.064;9.290;2023-04-22T09:40:35;98366.00;;;20.08;68.29
43153;BME280;28756;49.064;9.290;2023-04-22T09:43:04;98361.56;;;19.23;83.07
43153;BME280;28756;49.064;9.290;2023-04-22T09:45:36;98364.38;;;19.30;82.07
43153;BME280;28756;49.064;9.290;2023-04-22T09:50:37;98340.50;;;21.94;61.73
43153;BME280;28756;49.064;9.290;2023-04-22T09:53:06;98345.88;;;22.09;52.25
43153;BME280;28756;49.064;9.290;2023-04-22T09:55:36;98340.03;;;21.90;54.53
43153;BME280;28756;49.064;9.290;2023-04-22T09:58:14;98345.88;;;22.32;55.15
43153;BME280;28756;49.064;9.290;2023-04-22T10:00:46;98342.16;;;22.18;54.41
43153;BME280;28756;49.064;9.290;2023-04-22T10:03:13;98336.56;;;22.60;49.54
43153;BME280;28756;49.064;9.290;2023-04-22T10:05:39;98340.66;;;22.47;56.29
43153;BME280;28756;49.064;9.290;2023-04-22T10:08:08;98338.31;;;21.74;52.37
43153;BME280;28756;49.064;9.290;2023-04-22T10:10:36;98343.59;;;21.35;59.72
43153;BME280;28756;49.064;9.290;2023-04-22T10:13:03;98329.50;;;21.82;52.49
43153;BME280;28756;49.064;9.290;2023-04-22T10:15:43;98321.84;;;22.34;57.98
43153;BME280;28756;49.064;9.290;2023-04-22T10:18:14;98315.13;;;23.14;54.63
43153;BME280;28756;49.064;9.290;2023-04-22T10:20:42;98320.34;;;22.93;54.79
43153;BME280;28756;49.064;9.290;2023-04-22T10:23:23;98323.44;;;22.81;52.80
43153;BME280;28756;49.064;9.290;2023-04-22T10:25:54;98313.41;;;22.92;53.59
43153;BME280;28756;49.064;9.290;2023-04-22T10:28:22;98313.25;;;23.23;50.54
43153;BME280;28756;49.064;9.290;2023-04-22T10:30:49;98303.59;;;23.52;49.89
43153;BME280;28756;49.064;9.290;2023-04-22T10:41:15;98311.69;;;24.02;42.51
43153;BME280;28756;49.064;9.290;2023-04-22T10:43:55;98297.53;;;23.95;46.96
43153;BME280;28756;49.064;9.290;2023-04-22T10:49:12;98291.47;;;24.01;40.81
43153;BME280;28756;49.064;9.290;2023-04-22T10:57:06;98286.16;;;24.23;42.11
43153;BME280;28756;49.064;9.290;2023-04-22T11:00:14;98285.28;;;23.94;41.91
43153;BME280;28756;49.064;9.290;2023-04-22T11:02:26;98288.22;;;23.47;42.14
43153;BME280;28756;49.064;9.290;2023-04-22T11:05:25;98289.09;;;23.03;46.64
43153;BME280;28756;49.064;9.290;2023-04-22T11:07:54;98277.56;;;23.11;41.29
43153;BME280;28756;49.064;9.290;2023-04-22T11:10:37;98286.53;;;23.40;38.66
43153;BME280;28756;49.064;9.290;2023-04-22T11:13:17;98292.19;;;22.77;44.89
43153;BME280;28756;49.064;9.290;2023-04-22T11:15:49;98288.44;;;22.86;42.27
43153;BME280;28756;49.064;9.290;2023-04-22T11:18:24;98283.78;;;22.88;44.58
43153;BME280;28756;49.064;9.290;2023-04-22T11:20:51;98276.59;;;23.63;47.33
43153;BME280;28756;49.064;9.290;2023-04-22T11:23:27;98267.97;;;23.61;43.14
43153;BME280;28756;49.064;9.290;2023-04-22T11:25:59;98273.63;;;22.23;42.07
43153;BME280;28756;49.064;9.290;2023-04-22T11:28:26;98272.81;;;22.38;46.22
43153;BME280;28756;49.064;9.290;2023-04-22T11:30:59;98279.19;;;23.12;44.91
43153;BME280;28756;49.064;9.290;2023-04-22T11:33:25;98273.06;;;23.41;44.16
43153;BME280;28756;49.064;9.290;2023-04-22T11:35:51;98274.53;;;23.14;44.64
43153;BME280;28756;49.064;9.290;2023-04-22T11:38:17;98272.38;;;23.17;46.65
43153;BME280;28756;49.064;9.290;2023-04-22T11:40:44;98265.84;;;23.05;40.40
43153;BME280;28756;49.064;9.290;2023-04-22T11:43:10;98273.53;;;23.00;44.64
43153;BME280;28756;49.064;9.290;2023-04-22T11:45:38;98267.22;;;22.86;41.88
43153;BME280;28756;49.064;9.290;2023-04-22T11:48:07;98258.56;;;23.22;45.83
43153;BME280;28756;49.064;9.290;2023-04-22T11:50:36;98260.09;;;23.31;42.33
43153;BME280;28756;49.064;9.290;2023-04-22T11:53:11;98252.75;;;23.70;42.87
43153;BME280;28756;49.064;9.290;2023-04-22T11:55:39;98251.03;;;23.99;44.72
43153;BME280;28756;49.064;9.290;2023-04-22T11:58:12;98247.34;;;24.00;41.61
43153;BME280;28756;49.064;9.290;2023-04-22T12:00:47;98240.00;;;23.80;42.00
43153;BME280;28756;49.064;9.290;2023-04-22T12:03:16;98248.75;;;23.81;37.91
43153;BME280;28756;49.064;9.290;2023-04-22T12:08:18;98251.53;;;23.51;37.46
43153;BME280;28756;49.064;9.290;2023-04-22T12:10:51;98241.28;;;23.48;37.40
43153;BME280;28756;49.064;9.290;2023-04-22T12:13:42;98245.69;;;23.41;39.45
43153;BME280;28756;49.064;9.290;2023-04-22T12:16:13;98248.69;;;23.01;40.58
43153;BME280;28756;49.064;9.290;2023-04-22T12:21:14;98249.78;;;22.92;42.17
43153;BME280;28756;49.064;9.290;2023-04-22T12:26:16;98231.25;;;22.38;38.28
43153;BME280;28756;49.064;9.290;2023-04-22T12:28:44;98240.38;;;22.74;40.38
43153;BME280;28756;49.064;9.290;2023-04-22T12:31:11;98239.38;;;22.60;42.65
43153;BME280;28756;49.064;9.290;2023-04-22T12:33:38;98243.56;;;22.69;42.18
43153;BME280;28756;49.064;9.290;2023-04-22T12:36:05;98240.56;;;22.73;43.63
43153;BME280;28756;49.064;9.290;2023-04-22T12:38:31;98235.19;;;22.28;42.97
43153;BME280;28756;49.064;9.290;2023-04-22T12:40:57;98240.53;;;21.81;41.95
43153;BME280;28756;49.064;9.290;2023-04-22T12:43:24;98250.13;;;21.82;42.90
43153;BME280;28756;49.064;9.290;2023-04-22T12:45:50;98237.69;;;21.83;43.91
43153;BME280;28756;49.064;9.290;2023-04-22T12:48:16;98241.53;;;21.80;45.96
43153;BME280;28756;49.064;9.290;2023-04-22T12:50:42;98238.94;;;21.95;47.97
43153;BME280;28756;49.064;9.290;2023-04-22T12:53:08;98236.69;;;22.07;43.03
43153;BME280;28756;49.064;9.290;2023-04-22T12:55:35;98229.94;;;22.43;44.84
43153;BME280;28756;49.064;9.290;2023-04-22T12:58:01;98232.22;;;22.46;45.72
43153;BME280;28756;49.064;9.290;2023-04-22T13:00:27;98229.94;;;22.73;42.89
43153;BME280;28756;49.064;9.290;2023-04-22T13:02:53;98226.09;;;23.57;45.54
43153;BME280;28756;49.064;9.290;2023-04-22T13:05:19;98220.53;;;23.73;41.79
43153;BME280;28756;49.064;9.290;2023-04-22T13:07:45;98216.31;;;23.79;41.76
43153;BME280;28756;49.064;9.290;2023-04-22T13:10:14;98210.25;;;23.92;42.04
43153;BME280;28756;49.064;9.290;2023-04-22T13:12:41;98219.13;;;23.56;39.68
43153;BME280;28756;49.064;9.290;2023-04-22T13:15:09;98218.06;;;22.53;41.14
43153;BME280;28756;49.064;9.290;2023-04-22T13:17:36;98214.56;;;22.38;43.45
43153;BME280;28756;49.064;9.290;2023-04-22T13:20:03;98218.41;;;21.74;41.91
43153;BME280;28756;49.064;9.290;2023-04-22T13:22:29;98210.66;;;21.72;43.30
43153;BME280;28756;49.064;9.290;2023-04-22T13:24:55;98212.59;;;22.02;41.76